createdAt,value
2023-02-02T00:01:32.075Z,101198.03
2023-02-02T00:03:59.477Z,101187.63
2023-02-02T00:06:29.178Z,101205.19
2023-02-02T00:08:58.804Z,101199.78
2023-02-02T00:11:26.884Z,101185.66
2023-02-02T00:13:54.880Z,101197.09
2023-02-02T00:16:31.108Z,101208.50
2023-02-02T00:19:04.271Z,101199.59
2023-02-02T00:21:31.751Z,101196.75
2023-02-02T00:23:59.294Z,101189.69
2023-02-02T00:26:26.848Z,101205.56
2023-02-02T00:28:54.213Z,101196.69
2023-02-02T00:31:22.769Z,101197.78
2023-02-02T00:33:51.363Z,101190.69
2023-02-02T00:36:19.991Z,101203.75
2023-02-02T00:38:49.143Z,101203.75
2023-02-02T00:41:17.373Z,101202.09
2023-02-02T00:43:45.134Z,101195.91
2023-02-02T00:46:18.443Z,101188.75
2023-02-02T00:48:46.505Z,101199.31
2023-02-02T00:51:13.822Z,101195.06
2023-02-02T00:53:41.124Z,101194.09
2023-02-02T00:56:08.449Z,101208.84
2023-02-02T00:58:35.775Z,101220.38
2023-02-02T01:01:03.308Z,101220.22
2023-02-02T01:03:30.821Z,101207.97
2023-02-02T01:05:58.140Z,101216.69
2023-02-02T01:08:25.993Z,101203.59
2023-02-02T01:10:53.327Z,101213.09
2023-02-02T01:13:23.207Z,101214.81
2023-02-02T01:15:56.192Z,101213.97
2023-02-02T01:18:24.692Z,101225.59
2023-02-02T01:20:59.747Z,101220.16
2023-02-02T01:23:27.957Z,101218.81
2023-02-02T01:26:00.285Z,101217.47
2023-02-02T01:28:28.483Z,101226.41
2023-02-02T01:30:56.879Z,101223.75
2023-02-02T01:33:24.916Z,101224.50
2023-02-02T01:35:54.623Z,101226.97
2023-02-02T01:38:24.862Z,101230.34
2023-02-02T01:40:55.775Z,101239.34
2023-02-02T01:43:25.146Z,101235.09
2023-02-02T01:45:53.862Z,101225.50
2023-02-02T01:48:24.664Z,101219.19
2023-02-02T01:50:59.430Z,101221.00
2023-02-02T01:53:28.558Z,101217.56
2023-02-02T01:55:56.308Z,101213.94
2023-02-02T01:58:29.124Z,101218.19
2023-02-02T02:00:56.513Z,101216.03
2023-02-02T02:03:26.659Z,101215.81
2023-02-02T02:06:02.485Z,101215.72
2023-02-02T02:08:39.229Z,101218.75
2023-02-02T02:11:07.127Z,101232.09
2023-02-02T02:13:55.431Z,101221.69
2023-02-02T02:16:45.185Z,101215.47
2023-02-02T02:20:14.043Z,101230.31
2023-02-02T02:23:09.272Z,101237.28
2023-02-02T02:26:10.073Z,101224.03
2023-02-02T02:29:11.648Z,101238.81
2023-02-02T02:31:57.513Z,101232.69
2023-02-02T02:34:41.460Z,101242.19
2023-02-02T02:37:19.045Z,101229.06
2023-02-02T02:39:55.718Z,101233.34
2023-02-02T02:42:27.732Z,101232.22
2023-02-02T02:44:56.419Z,101242.97
2023-02-02T02:47:24.209Z,101241.63
2023-02-02T02:49:51.770Z,101240.91
2023-02-02T02:52:19.077Z,101237.59
2023-02-02T02:54:50.478Z,101248.22
2023-02-02T02:57:33.457Z,101244.66
2023-02-02T03:00:29.001Z,101251.72
2023-02-02T03:03:27.378Z,101256.91
2023-02-02T03:06:08.287Z,101250.00
2023-02-02T03:09:05.259Z,101244.72
2023-02-02T03:11:34.204Z,101251.75
2023-02-02T03:14:02.059Z,101246.56
2023-02-02T03:16:29.409Z,101259.59
2023-02-02T03:18:57.234Z,101275.41
2023-02-02T03:21:24.703Z,101249.91
2023-02-02T03:23:52.011Z,101244.75
2023-02-02T03:26:19.444Z,101250.00
2023-02-02T03:28:46.867Z,101246.31
2023-02-02T03:31:14.280Z,101234.66
2023-02-02T03:33:41.713Z,101254.66
2023-02-02T03:36:09.434Z,101253.75
2023-02-02T03:38:36.797Z,101251.97
2023-02-02T03:41:05.254Z,101266.09
2023-02-02T03:43:32.553Z,101263.56
2023-02-02T03:46:04.286Z,101273.66
2023-02-02T03:48:34.854Z,101278.19
2023-02-02T03:51:06.639Z,101261.53
2023-02-02T03:53:33.973Z,101237.84
2023-02-02T03:56:01.371Z,101259.25
2023-02-02T03:58:28.713Z,101269.72
2023-02-02T04:01:08.305Z,101252.59
2023-02-02T04:03:35.641Z,101248.06
2023-02-02T04:06:03.509Z,101265.47
2023-02-02T04:08:31.616Z,101230.75
2023-02-02T04:10:59.641Z,101238.84
2023-02-02T04:13:27.063Z,101233.22
2023-02-02T04:16:01.161Z,101231.53
2023-02-02T04:18:29.461Z,101240.47
2023-02-02T04:21:00.817Z,101231.13
2023-02-02T04:23:29.485Z,101232.56
2023-02-02T04:25:57.911Z,101226.56
2023-02-02T04:28:26.775Z,101233.78
2023-02-02T04:30:55.376Z,101231.19
2023-02-02T04:33:24.756Z,101238.28
2023-02-02T04:35:52.126Z,101223.94
2023-02-02T04:38:19.689Z,101235.63
2023-02-02T04:40:48.670Z,101249.88
2023-02-02T04:43:16.560Z,101228.28
2023-02-02T04:45:44.104Z,101229.78
2023-02-02T04:48:11.808Z,101234.56
2023-02-02T04:50:39.175Z,101230.59
2023-02-02T04:53:06.604Z,101236.91
2023-02-02T04:55:37.717Z,101230.22
2023-02-02T04:58:05.990Z,101242.91
2023-02-02T05:00:33.681Z,101246.34
2023-02-02T05:03:01.487Z,101243.41
2023-02-02T05:05:28.907Z,101249.13
2023-02-02T05:07:56.289Z,101241.13
2023-02-02T05:10:23.618Z,101220.09
2023-02-02T05:12:53.344Z,101229.91
2023-02-02T05:15:22.146Z,101264.56
2023-02-02T05:17:50.079Z,101238.59
2023-02-02T05:20:17.707Z,101223.84
2023-02-02T05:22:48.255Z,101230.84
2023-02-02T05:25:16.230Z,101258.22
2023-02-02T05:27:44.862Z,101242.66
2023-02-02T05:30:14.210Z,101227.84
2023-02-02T05:32:41.693Z,101241.34
2023-02-02T05:35:10.067Z,101254.78
2023-02-02T05:37:37.481Z,101232.03
2023-02-02T05:40:05.055Z,101233.78
2023-02-02T05:42:32.411Z,101253.22
2023-02-02T05:44:59.725Z,101253.25
2023-02-02T05:47:27.034Z,101247.91
2023-02-02T05:49:54.348Z,101254.28
2023-02-02T05:52:24.933Z,101243.78
2023-02-02T05:54:52.228Z,101254.25
2023-02-02T05:57:19.509Z,101268.34
2023-02-02T05:59:47.310Z,101250.09
2023-02-02T06:02:14.632Z,101247.47
2023-02-02T06:04:41.949Z,101248.50
2023-02-02T06:07:09.313Z,101256.28
2023-02-02T06:09:36.696Z,101247.53
2023-02-02T06:12:04.417Z,101240.56
2023-02-02T06:14:31.831Z,101241.47
2023-02-02T06:16:59.145Z,101253.56
2023-02-02T06:19:26.541Z,101244.75
2023-02-02T06:21:54.090Z,101236.91
2023-02-02T06:24:21.600Z,101237.06
2023-02-02T06:26:48.999Z,101253.75
2023-02-02T06:29:16.454Z,101252.13
2023-02-02T06:31:44.005Z,101253.88
2023-02-02T06:34:14.842Z,101266.34
2023-02-02T06:36:42.747Z,101256.03
2023-02-02T06:39:10.370Z,101250.69
2023-02-02T06:41:37.819Z,101248.38
2023-02-02T06:44:05.224Z,101252.78
2023-02-02T06:46:32.761Z,101269.56
2023-02-02T06:49:00.516Z,101267.66
2023-02-02T06:51:27.881Z,101251.72
2023-02-02T06:53:57.110Z,101266.03
2023-02-02T06:56:26.277Z,101279.91
2023-02-02T06:58:53.579Z,101258.78
2023-02-02T07:01:21.018Z,101260.38
2023-02-02T07:03:50.297Z,101261.28
2023-02-02T07:06:20.688Z,101253.50
2023-02-02T07:09:01.215Z,101251.09
2023-02-02T07:11:34.427Z,101264.16
2023-02-02T07:14:03.798Z,101276.28
2023-02-02T07:16:32.387Z,101253.41
2023-02-02T07:18:59.792Z,101261.38
2023-02-02T07:21:35.666Z,101267.63
2023-02-02T07:24:04.866Z,101271.22
2023-02-02T07:26:35.854Z,101267.59
2023-02-02T07:29:04.640Z,101256.19
2023-02-02T07:31:35.585Z,101270.34
2023-02-02T07:34:03.783Z,101284.34
2023-02-02T07:36:31.389Z,101276.50
2023-02-02T07:38:59.742Z,101273.84
2023-02-02T07:41:27.949Z,101302.16
2023-02-02T07:43:55.436Z,101298.00
2023-02-02T07:46:23.088Z,101284.97
2023-02-02T07:48:54.462Z,101285.13
2023-02-02T07:51:22.005Z,101305.38
2023-02-02T07:53:52.343Z,101288.03
2023-02-02T07:56:22.999Z,101297.63
2023-02-02T07:58:53.225Z,101302.03
2023-02-02T08:01:23.117Z,101310.03
2023-02-02T08:03:50.848Z,101320.50
2023-02-02T08:06:21.474Z,101308.31
2023-02-02T08:08:49.614Z,101303.97
2023-02-02T08:11:20.168Z,101305.66
2023-02-02T08:13:58.925Z,101296.88
2023-02-02T08:16:27.932Z,101321.47
2023-02-02T08:18:55.666Z,101309.28
2023-02-02T08:21:23.739Z,101312.97
2023-02-02T08:23:52.586Z,101302.53
2023-02-02T08:26:23.570Z,101314.13
2023-02-02T08:28:57.145Z,101306.31
2023-02-02T08:31:28.202Z,101308.09
2023-02-02T08:33:57.973Z,101301.16
2023-02-02T08:36:28.319Z,101294.25
2023-02-02T08:38:56.131Z,101287.25
2023-02-02T08:41:24.202Z,101291.75
2023-02-02T08:43:51.763Z,101297.19
2023-02-02T08:46:21.005Z,101283.41
2023-02-02T08:48:49.110Z,101271.59
2023-02-02T08:51:19.474Z,101307.31
2023-02-02T08:53:47.314Z,101308.25
2023-02-02T08:56:17.585Z,101287.22
2023-02-02T08:58:56.416Z,101276.28
2023-02-02T09:01:27.119Z,101293.63
2023-02-02T09:03:59.460Z,101304.13
2023-02-02T09:06:36.182Z,101296.59
2023-02-02T09:09:05.704Z,101306.97
2023-02-02T09:11:33.287Z,101303.25
2023-02-02T09:14:03.132Z,101301.72
2023-02-02T09:16:30.648Z,101287.78
2023-02-02T09:18:58.071Z,101298.47
2023-02-02T09:21:25.855Z,101314.38
2023-02-02T09:23:54.375Z,101316.09
2023-02-02T09:26:40.977Z,101307.25
2023-02-02T09:29:13.422Z,101318.75
2023-02-02T09:31:40.909Z,101323.19
2023-02-02T09:34:10.845Z,101324.03
2023-02-02T09:36:39.460Z,101330.22
2023-02-02T09:39:08.064Z,101324.03
2023-02-02T09:41:38.542Z,101325.78
2023-02-02T09:44:30.554Z,101339.94
2023-02-02T09:47:22.373Z,101340.81
2023-02-02T09:50:04.346Z,101325.84
2023-02-02T09:52:40.740Z,101329.34
2023-02-02T09:55:19.397Z,101332.88
2023-02-02T09:57:51.956Z,101345.22
2023-02-02T10:00:29.611Z,101342.59
2023-02-02T10:03:06.436Z,101343.44
2023-02-02T10:05:47.579Z,101333.72
2023-02-02T10:08:34.280Z,101343.41
2023-02-02T10:11:30.880Z,101338.97
2023-02-02T10:14:10.223Z,101329.28
2023-02-02T10:16:39.624Z,101326.56
2023-02-02T10:19:13.752Z,101327.41
2023-02-02T10:21:51.955Z,101314.13
2023-02-02T10:24:23.023Z,101307.88
2023-02-02T10:27:04.074Z,101305.28
2023-02-02T10:29:56.647Z,101299.84
2023-02-02T10:32:27.304Z,101310.41
2023-02-02T10:35:10.838Z,101301.50
2023-02-02T10:38:01.062Z,101293.47
2023-02-02T10:40:49.495Z,101285.38
2023-02-02T10:43:54.623Z,101278.25
2023-02-02T10:46:27.915Z,101294.09
2023-02-02T10:49:12.963Z,101274.56
2023-02-02T10:51:41.384Z,101284.28
2023-02-02T10:54:55.977Z,101303.69
2023-02-02T10:58:00.344Z,101272.69
2023-02-02T11:00:43.856Z,101271.75
2023-02-02T11:03:13.556Z,101284.81
2023-02-02T11:05:59.674Z,101272.38
2023-02-02T11:08:46.121Z,101273.28
2023-02-02T11:11:34.873Z,101268.59
2023-02-02T11:14:08.107Z,101264.16
2023-02-02T11:16:43.511Z,101267.50
2023-02-02T11:19:17.983Z,101247.88
2023-02-02T11:21:54.746Z,101245.81
2023-02-02T11:24:29.398Z,101250.88
2023-02-02T11:26:59.710Z,101241.47
2023-02-02T11:29:32.427Z,101229.22
2023-02-02T11:32:20.189Z,101223.16
2023-02-02T11:34:47.835Z,101215.91
2023-02-02T11:37:21.504Z,101239.63
2023-02-02T11:39:48.957Z,101222.78
2023-02-02T11:42:20.603Z,101223.44
2023-02-02T11:44:49.801Z,101232.19
2023-02-02T11:47:26.554Z,101209.97
2023-02-02T11:49:55.655Z,101207.19
2023-02-02T11:52:30.683Z,101189.59
2023-02-02T11:55:02.480Z,101209.59
2023-02-02T11:57:30.781Z,101200.25
2023-02-02T12:00:10.468Z,101180.34
2023-02-02T12:02:37.993Z,101188.47
2023-02-02T12:05:20.629Z,101191.34
2023-02-02T12:07:49.363Z,101177.09
2023-02-02T12:10:36.515Z,101170.34
2023-02-02T12:13:22.140Z,101166.34
2023-02-02T12:16:21.503Z,101153.44
2023-02-02T12:19:16.680Z,101161.00
2023-02-02T12:21:59.482Z,101156.53
2023-02-02T12:24:31.507Z,101142.63
2023-02-02T12:27:20.491Z,101133.25
2023-02-02T12:29:51.047Z,101121.91
2023-02-02T12:32:44.521Z,101134.97
2023-02-02T12:35:49.426Z,101134.75
2023-02-02T12:38:35.379Z,101136.38
2023-02-02T12:41:30.649Z,101146.28
2023-02-02T12:44:19.924Z,101146.00
2023-02-02T12:46:59.951Z,101126.28
2023-02-02T12:49:54.752Z,101142.44
2023-02-02T12:52:27.804Z,101129.78
2023-02-02T12:55:15.251Z,101128.03
2023-02-02T12:57:42.703Z,101122.50
2023-02-02T13:00:57.421Z,101114.44
2023-02-02T13:04:02.544Z,101122.84
2023-02-02T13:07:08.962Z,101129.53
2023-02-02T13:09:48.470Z,101131.88
2023-02-02T13:12:22.178Z,101142.66
2023-02-02T13:15:01.124Z,101128.38
2023-02-02T13:17:49.689Z,101133.19
2023-02-02T13:20:40.247Z,101144.78
2023-02-02T13:23:18.560Z,101142.03
2023-02-02T13:26:01.437Z,101135.50
2023-02-02T13:28:47.568Z,101131.78
2023-02-02T13:31:20.762Z,101125.31
2023-02-02T13:33:59.808Z,101122.78
2023-02-02T13:36:36.016Z,101118.88
2023-02-02T13:39:22.116Z,101129.19
2023-02-02T13:41:50.001Z,101131.28
2023-02-02T13:44:32.669Z,101113.59
2023-02-02T13:47:15.594Z,101122.31
2023-02-02T13:49:52.024Z,101125.31
2023-02-02T13:52:19.301Z,101120.16
2023-02-02T13:55:18.035Z,101117.94
2023-02-02T13:58:22.131Z,101109.78
2023-02-02T14:00:57.075Z,101123.91
2023-02-02T14:03:56.415Z,101114.41
2023-02-02T14:06:28.034Z,101133.56
2023-02-02T14:09:02.700Z,101125.81
2023-02-02T14:11:42.419Z,101123.41
2023-02-02T14:14:32.637Z,101126.78
2023-02-02T14:17:06.969Z,101142.31
2023-02-02T14:19:42.265Z,101140.94
2023-02-02T14:22:09.642Z,101139.34
2023-02-02T14:24:36.935Z,101133.00
2023-02-02T14:27:30.093Z,101136.81
2023-02-02T14:29:59.677Z,101151.09
2023-02-02T14:32:29.876Z,101144.25
2023-02-02T14:34:58.083Z,101138.22
2023-02-02T14:37:28.318Z,101141.94
2023-02-02T14:40:00.151Z,101133.09
2023-02-02T14:43:20.864Z,101133.03
2023-02-02T14:46:12.869Z,101128.63
2023-02-02T14:48:49.758Z,101128.78
2023-02-02T14:51:24.020Z,101132.38
2023-02-02T14:53:59.284Z,101124.53
2023-02-02T14:56:45.435Z,101140.50
2023-02-02T14:59:23.090Z,101141.44
2023-02-02T15:02:01.100Z,101144.13
2023-02-02T15:04:29.419Z,101139.78
2023-02-02T15:07:36.935Z,101150.34
2023-02-02T15:10:05.224Z,101159.25
2023-02-02T15:12:46.015Z,101149.47
2023-02-02T15:15:22.443Z,101144.06
2023-02-02T15:18:12.623Z,101149.44
2023-02-02T15:20:48.879Z,101148.44
2023-02-02T15:23:39.142Z,101142.16
2023-02-02T15:26:32.829Z,101143.88
2023-02-02T15:29:13.679Z,101149.25
2023-02-02T15:31:46.596Z,101155.41
2023-02-02T15:34:17.868Z,101142.00
2023-02-02T15:36:47.048Z,101147.38
2023-02-02T15:39:25.848Z,101144.09
2023-02-02T15:42:16.883Z,101132.47
2023-02-02T15:44:45.484Z,101132.44
2023-02-02T15:47:19.757Z,101128.97
2023-02-02T15:49:48.638Z,101146.78
2023-02-02T15:52:25.298Z,101140.78
2023-02-02T15:55:32.639Z,101149.00
2023-02-02T15:58:01.124Z,101148.25
2023-02-02T16:00:33.017Z,101152.06
2023-02-02T16:03:18.764Z,101159.13
2023-02-02T16:05:53.455Z,101157.53
2023-02-02T16:08:28.596Z,101155.84
2023-02-02T16:11:26.094Z,101165.75
2023-02-02T16:14:03.162Z,101162.34
2023-02-02T16:16:42.453Z,101165.91
2023-02-02T16:19:19.539Z,101177.50
2023-02-02T16:22:03.286Z,101181.25
2023-02-02T16:24:34.004Z,101188.56
2023-02-02T16:27:05.477Z,101189.59
2023-02-02T16:29:34.785Z,101188.88
2023-02-02T16:32:02.579Z,101189.81
2023-02-02T16:34:39.055Z,101181.00
2023-02-02T16:37:12.897Z,101189.91
2023-02-02T16:39:40.253Z,101188.28
2023-02-02T16:42:12.097Z,101208.78
2023-02-02T16:44:45.256Z,101213.22
2023-02-02T16:47:27.898Z,101207.03
2023-02-02T16:50:24.144Z,101212.38
2023-02-02T16:52:56.461Z,101214.25
2023-02-02T16:55:24.442Z,101207.22
2023-02-02T16:57:52.274Z,101216.09
2023-02-02T17:00:26.926Z,101226.75
2023-02-02T17:03:07.426Z,101215.34
2023-02-02T17:06:04.498Z,101221.66
2023-02-02T17:08:35.253Z,101236.03
2023-02-02T17:11:19.760Z,101237.91
2023-02-02T17:13:47.083Z,101235.31
2023-02-02T17:16:19.867Z,101236.28
2023-02-02T17:18:48.212Z,101240.81
2023-02-02T17:21:19.761Z,101247.94
2023-02-02T17:23:47.454Z,101244.44
2023-02-02T17:26:16.993Z,101237.31
2023-02-02T17:28:44.554Z,101244.25
2023-02-02T17:31:16.470Z,101252.28
2023-02-02T17:33:44.088Z,101253.25
2023-02-02T17:36:13.214Z,101254.16
2023-02-02T17:38:40.839Z,101251.63
2023-02-02T17:41:12.379Z,101268.59
2023-02-02T17:43:39.792Z,101258.03
2023-02-02T17:46:12.007Z,101254.72
2023-02-02T17:48:39.383Z,101254.72
2023-02-02T17:51:16.376Z,101264.47
2023-02-02T17:53:44.588Z,101269.00
2023-02-02T17:56:12.023Z,101276.19
2023-02-02T17:58:39.991Z,101279.88
2023-02-02T18:01:07.372Z,101289.69
2023-02-02T18:03:37.291Z,101275.66
2023-02-02T18:06:04.830Z,101279.28
2023-02-02T18:08:32.999Z,101282.97
2023-02-02T18:11:00.427Z,101280.34
2023-02-02T18:13:28.337Z,101279.50
2023-02-02T18:15:59.651Z,101277.75
2023-02-02T18:18:27.448Z,101297.25
2023-02-02T18:20:54.794Z,101285.78
2023-02-02T18:23:24.469Z,101294.63
2023-02-02T18:25:52.969Z,101315.09
2023-02-02T18:28:20.431Z,101303.66
2023-02-02T18:30:47.848Z,101308.09
2023-02-02T18:33:19.523Z,101311.59
2023-02-02T18:35:47.407Z,101289.34
2023-02-02T18:38:14.859Z,101289.34
2023-02-02T18:40:42.621Z,101309.72
2023-02-02T18:43:10.042Z,101306.31
2023-02-02T18:45:37.408Z,101313.38
2023-02-02T18:48:04.793Z,101308.97
2023-02-02T18:50:32.485Z,101310.94
2023-02-02T18:53:00.173Z,101309.19
2023-02-02T18:55:27.885Z,101310.13
2023-02-02T18:57:55.762Z,101307.41
2023-02-02T19:00:23.152Z,101318.97
2023-02-02T19:02:50.454Z,101327.00
2023-02-02T19:05:47.414Z,101320.91
2023-02-02T19:08:14.672Z,101319.13
2023-02-02T19:10:41.931Z,101315.69
2023-02-02T19:13:18.271Z,101306.94
2023-02-02T19:15:47.919Z,101314.88
2023-02-02T19:18:21.372Z,101326.41
2023-02-02T19:20:50.053Z,101334.34
2023-02-02T19:23:20.305Z,101319.38
2023-02-02T19:25:51.479Z,101336.19
2023-02-02T19:28:28.328Z,101330.06
2023-02-02T19:31:01.472Z,101347.78
2023-02-02T19:33:41.587Z,101353.06
2023-02-02T19:36:18.393Z,101350.41
2023-02-02T19:38:46.727Z,101363.63
2023-02-02T19:41:22.669Z,101365.44
2023-02-02T19:43:55.230Z,101361.94
2023-02-02T19:46:25.722Z,101374.28
2023-02-02T19:49:04.045Z,101380.47
2023-02-02T19:51:50.540Z,101385.78
2023-02-02T19:54:34.051Z,101389.31
2023-02-02T19:57:40.743Z,101389.31
2023-02-02T20:00:24.521Z,101390.22
2023-02-02T20:03:07.632Z,101389.34
2023-02-02T20:05:41.440Z,101391.09
2023-02-02T20:08:31.854Z,101389.31
2023-02-02T20:11:03.156Z,101395.47
2023-02-02T20:13:41.949Z,101408.66
2023-02-02T20:16:18.090Z,101399.88
2023-02-02T20:18:50.729Z,101408.72
2023-02-02T20:21:48.962Z,101414.03
2023-02-02T20:24:23.900Z,101415.81
2023-02-02T20:26:55.153Z,101421.97
2023-02-02T20:29:28.122Z,101426.41
2023-02-02T20:31:58.440Z,101433.44
2023-02-02T20:34:29.924Z,101435.19
2023-02-02T20:37:33.297Z,101432.56
2023-02-02T20:40:22.654Z,101429.06
2023-02-02T20:42:50.392Z,101447.56
2023-02-02T20:45:17.901Z,101453.78
2023-02-02T20:47:45.697Z,101454.63
2023-02-02T20:50:15.491Z,101468.78
2023-02-02T20:52:43.190Z,101470.50
2023-02-02T20:55:10.997Z,101468.75
2023-02-02T20:57:40.931Z,101474.03
2023-02-02T21:00:11.590Z,101468.72
2023-02-02T21:02:38.918Z,101485.44
2023-02-02T21:05:06.720Z,101474.81
2023-02-02T21:07:39.117Z,101485.31
2023-02-02T21:10:07.378Z,101476.56
2023-02-02T21:12:34.819Z,101473.78
2023-02-02T21:15:03.914Z,101466.72
2023-02-02T21:17:31.512Z,101469.38
2023-02-02T21:19:58.876Z,101476.47
2023-02-02T21:22:26.338Z,101481.75
2023-02-02T21:24:54.783Z,101475.56
2023-02-02T21:27:22.188Z,101459.72
2023-02-02T21:29:49.703Z,101476.47
2023-02-02T21:32:17.004Z,101489.59
2023-02-02T21:34:44.496Z,101502.00
2023-02-02T21:37:16.034Z,101515.22
2023-02-02T21:39:48.383Z,101511.72
2023-02-02T21:42:18.484Z,101507.31
2023-02-02T21:44:49.843Z,101504.63
2023-02-02T21:47:26.646Z,101508.09
2023-02-02T21:50:02.659Z,101507.16
2023-02-02T21:52:33.739Z,101522.94
2023-02-02T21:55:35.467Z,101517.59
2023-02-02T21:58:19.008Z,101515.78
2023-02-02T22:00:47.034Z,101521.97
2023-02-02T22:03:36.958Z,101520.03
2023-02-02T22:06:35.382Z,101523.38
2023-02-02T22:09:11.894Z,101524.31
2023-02-02T22:11:46.915Z,101529.63
2023-02-02T22:14:31.196Z,101533.91
2023-02-02T22:17:00.137Z,101534.72
2023-02-02T22:19:49.477Z,101530.41
2023-02-02T22:22:23.756Z,101533.94
2023-02-02T22:24:59.322Z,101542.78
2023-02-02T22:27:40.248Z,101547.22
2023-02-02T22:30:37.087Z,101564.81
2023-02-02T22:33:06.415Z,101556.91
2023-02-02T22:35:34.327Z,101575.38
2023-02-02T22:38:02.820Z,101568.38
2023-02-02T22:40:30.697Z,101588.69
2023-02-02T22:43:01.247Z,101599.06
2023-02-02T22:45:29.063Z,101601.59
2023-02-02T22:47:56.530Z,101598.16
2023-02-02T22:50:27.747Z,101601.69
2023-02-02T22:52:55.929Z,101597.16
2023-02-02T22:55:23.718Z,101596.09
2023-02-02T22:57:51.043Z,101607.56
2023-02-02T23:00:25.472Z,101596.97
2023-02-02T23:02:54.253Z,101597.84
2023-02-02T23:05:22.974Z,101588.94
2023-02-02T23:07:51.182Z,101610.81
2023-02-02T23:10:21.095Z,101604.63
2023-02-02T23:12:49.511Z,101613.44
2023-02-02T23:15:17.282Z,101622.28
2023-02-02T23:17:44.680Z,101592.44
2023-02-02T23:20:14.231Z,101625.00
2023-02-02T23:22:41.697Z,101635.44
2023-02-02T23:25:10.582Z,101625.03
2023-02-02T23:27:38.219Z,101618.00
2023-02-02T23:30:07.459Z,101632.19
2023-02-02T23:32:35.747Z,101623.34
2023-02-02T23:35:04.103Z,101622.34
2023-02-02T23:37:31.905Z,101641.59
2023-02-02T23:39:59.509Z,101642.50
2023-02-02T23:42:26.869Z,101644.25
2023-02-02T23:44:54.257Z,101647.66
2023-02-02T23:47:21.678Z,101644.97
2023-02-02T23:49:49.064Z,101647.44
2023-02-02T23:52:16.626Z,101633.16
2023-02-02T23:54:44.265Z,101644.09
2023-02-02T23:57:11.661Z,101638.56
2023-02-02T23:59:39.042Z,101633.31
